createdAt,value
2022-11-03T00:02:41.248Z,15.6
2022-11-03T00:08:31.773Z,15.4
2022-11-03T00:14:32.350Z,18.2
2022-11-03T00:20:25.495Z,18.1
2022-11-03T00:26:18.827Z,16.6
2022-11-03T00:32:14.321Z,17.2
2022-11-03T00:38:05.881Z,17.8
2022-11-03T00:44:01.088Z,21
2022-11-03T00:49:53.288Z,18.2
2022-11-03T00:55:44.079Z,20.2
2022-11-03T01:01:51.377Z,21.6
2022-11-03T01:07:44.256Z,16.4
2022-11-03T01:15:00.834Z,16.6
2022-11-03T01:20:55.473Z,19.4
2022-11-03T06:54:22.228Z,17.5
2022-11-03T07:06:20.230Z,18.9
2022-11-03T07:12:31.349Z,21.4
2022-11-03T07:18:27.909Z,14.9
2022-11-03T07:24:18.627Z,15
2022-11-03T07:30:09.446Z,16.7
2022-11-03T07:36:31.469Z,21.6
2022-11-03T07:42:24.862Z,20.7
2022-11-03T07:48:15.816Z,19.6
2022-11-03T07:54:33.176Z,14
2022-11-03T08:00:23.025Z,16.2
2022-11-03T08:06:21.621Z,16.6
2022-11-03T08:12:12.083Z,17.3
2022-11-03T08:18:04.063Z,18.4
2022-11-03T08:23:58.596Z,16.9
2022-11-03T08:29:49.692Z,16.3
2022-11-03T08:35:40.167Z,15.1
2022-11-03T08:41:31.021Z,16.1
2022-11-03T08:47:21.997Z,18.2
2022-11-03T08:53:13.236Z,15.4
2022-11-03T08:59:05.105Z,15
2022-11-03T09:04:57.278Z,16.8
2022-11-03T09:10:50.247Z,14.8
2022-11-03T09:16:41.053Z,13.2
2022-11-03T09:22:34.990Z,12.7
2022-11-03T09:28:25.875Z,15.9
2022-11-03T09:34:19.242Z,18.5
2022-11-03T09:40:11.990Z,15.3
2022-11-03T09:46:02.536Z,12.7
2022-11-03T09:51:53.328Z,12.3
2022-11-03T09:57:44.211Z,11.7
2022-11-03T10:03:35.127Z,12.1
2022-11-03T10:09:26.629Z,15
2022-11-03T10:15:17.524Z,12.5
2022-11-03T10:21:09.463Z,16.2
2022-11-03T10:27:01.166Z,14.7
2022-11-03T10:32:51.116Z,13.4
2022-11-03T10:38:42.346Z,16.2
2022-11-03T10:44:33.127Z,15.4
2022-11-03T10:50:24.671Z,12.5
2022-11-03T10:56:15.863Z,15.6
2022-11-03T11:02:07.201Z,15.7
2022-11-03T11:07:58.161Z,13.5
2022-11-03T11:13:49.755Z,12.1
2022-11-03T11:19:40.565Z,12.2
2022-11-03T11:25:30.890Z,16.2
2022-11-03T11:31:21.421Z,13
2022-11-03T11:37:11.405Z,13
2022-11-03T11:43:02.652Z,13.9
2022-11-03T11:48:54.625Z,13.8
2022-11-03T11:54:46.411Z,12.6
2022-11-03T12:00:38.798Z,13.9
2022-11-03T12:06:30.909Z,15.7
2022-11-03T12:12:22.685Z,16.8
2022-11-03T12:20:38.698Z,16
2022-11-03T12:26:28.225Z,11.5
2022-11-03T12:32:39.727Z,13.1
2022-11-03T12:38:28.610Z,13.2
2022-11-03T12:44:19.289Z,12.8
2022-11-03T12:50:11.506Z,11.5
2022-11-03T12:56:02.655Z,14.9
2022-11-03T13:01:53.922Z,15.6
2022-11-03T13:07:46.526Z,14.8
2022-11-03T13:14:51.906Z,12.9
2022-11-03T13:20:41.070Z,12
2022-11-03T13:26:31.698Z,11.8
2022-11-03T13:32:22.510Z,14.5
2022-11-03T13:38:13.566Z,11.3
2022-11-03T13:44:05.466Z,10.5
2022-11-03T13:50:19.990Z,13.2
2022-11-03T13:56:23.907Z,12.3
2022-11-03T14:10:29.790Z,11.9
2022-11-03T14:16:20.970Z,13.3
2022-11-03T14:22:12.352Z,10.2
2022-11-03T14:28:03.948Z,12.8
2022-11-03T14:33:54.059Z,12.3
2022-11-03T14:39:45.353Z,11.8
2022-11-03T14:45:44.081Z,12.6
2022-11-03T14:51:34.179Z,12.2
2022-11-03T14:57:25.488Z,15.5
2022-11-03T15:03:16.071Z,15.4
2022-11-03T15:09:06.667Z,16.2
2022-11-03T15:14:58.444Z,12.8
2022-11-03T15:20:49.536Z,14
2022-11-03T15:26:40.465Z,18.3
2022-11-03T15:32:39.945Z,13.9
2022-11-03T15:38:29.491Z,15.3
2022-11-03T15:44:20.472Z,13.4
2022-11-03T15:50:12.835Z,14.8
2022-11-03T15:56:03.407Z,14.4
2022-11-03T16:02:42.228Z,14.2
2022-11-03T16:08:30.602Z,15.6
2022-11-03T16:14:20.860Z,15.2
2022-11-03T16:20:11.470Z,15.9
2022-11-03T16:26:02.718Z,13.2
2022-11-03T16:31:53.662Z,15
2022-11-03T16:37:43.867Z,13.3
2022-11-03T16:43:34.592Z,12.6
2022-11-03T16:49:24.666Z,12.4
2022-11-03T16:55:15.348Z,11.8
2022-11-03T17:01:07.956Z,12.5
2022-11-03T17:06:57.568Z,11
2022-11-03T17:12:48.382Z,13.9
2022-11-03T17:18:38.060Z,12.2
2022-11-03T17:24:26.613Z,11.8
2022-11-03T17:30:16.892Z,11.7
2022-11-03T17:36:07.154Z,11.8
2022-11-03T17:41:57.523Z,12.4
2022-11-03T17:47:47.456Z,12
2022-11-03T17:53:37.464Z,10.5
2022-11-03T17:59:26.072Z,13.1
2022-11-03T18:05:24.253Z,13
2022-11-03T18:11:13.630Z,11.9
2022-11-03T18:17:05.288Z,12.8
2022-11-03T18:22:56.731Z,13.7
2022-11-03T18:28:47.988Z,13.7
2022-11-03T18:34:38.957Z,12.7
2022-11-03T18:40:30.067Z,11.1
2022-11-03T18:46:20.626Z,11.2
2022-11-03T18:52:11.984Z,11.4
2022-11-03T18:58:03.290Z,11.8
2022-11-03T19:03:54.935Z,14
2022-11-03T19:09:45.692Z,11.7
2022-11-03T19:15:38.023Z,12.3
2022-11-03T19:21:30.597Z,12.3
2022-11-03T19:27:21.988Z,14.8
2022-11-03T19:33:13.572Z,15
2022-11-03T19:39:05.373Z,18.8
2022-11-03T19:44:59.657Z,15.4
2022-11-03T19:50:57.222Z,17.7
2022-11-03T19:56:49.295Z,14.3
2022-11-03T20:02:42.803Z,16.2
2022-11-03T20:08:36.053Z,15.9
2022-11-03T20:14:29.165Z,14.5
2022-11-03T20:20:22.305Z,12.2
2022-11-03T20:26:14.196Z,13
2022-11-03T20:32:06.602Z,10.9
2022-11-03T20:37:59.357Z,13.3
2022-11-03T20:43:51.262Z,14.4
2022-11-03T20:49:45.316Z,15
2022-11-03T20:55:38.506Z,15.1
2022-11-03T21:01:30.169Z,14.9
2022-11-03T21:07:22.278Z,17
2022-11-03T21:13:14.575Z,14
2022-11-03T21:19:07.226Z,17.6
2022-11-03T21:24:57.413Z,19.3
2022-11-03T21:30:48.242Z,17.5
2022-11-03T21:36:39.332Z,17.1
2022-11-03T21:42:33.290Z,18.8
2022-11-03T21:48:25.316Z,23.8
2022-11-03T21:54:15.308Z,20.5
2022-11-03T22:00:06.990Z,16.1
2022-11-03T22:05:57.573Z,11
2022-11-03T22:11:48.005Z,7.7
2022-11-03T22:17:37.988Z,3.4
2022-11-03T22:23:30.733Z,3.6
2022-11-03T22:29:23.034Z,3.3
2022-11-03T22:35:13.256Z,3.8
2022-11-03T22:41:04.120Z,3
2022-11-03T22:46:54.449Z,3.1
2022-11-03T22:52:44.858Z,2.4
2022-11-03T22:58:35.281Z,3.9
2022-11-03T23:04:25.478Z,2.4
2022-11-03T23:10:16.942Z,3.2
2022-11-03T23:16:07.067Z,2
2022-11-03T23:21:59.645Z,2.3
2022-11-03T23:27:50.286Z,2
2022-11-03T23:33:41.038Z,2.8
2022-11-03T23:39:31.843Z,1.1
2022-11-03T23:45:22.563Z,1.4
2022-11-03T23:51:13.126Z,1.5
2022-11-03T23:57:03.814Z,2.3
